Aguilar, CO (81020)

3:31 AM MDT on April 19, 2018 (GMT -0600)
Vezzani's House - Aguilar, CO | | Change Station
Active Advisory: Fire Weather Warning

Elev 6417 ft 37.41 °N, 104.65 °W | Updated 11 seconds ago

Clear
Clear
37.7 °F
Feels Like 32 °F
N
7.0
Wind Variable Wind from SSW
Gusts 9.0 mph

Today
High -- | Low -- °F
--% Chance of Precip.
Yesterday
High -- | Low -- °F
Precip. -- in
Pressure 30.15 in
Visibility 10.0 miles
Clouds Clear
Windchill 32 °F
Dew Point 14 °F
Humidity 37%
Rainfall 0.00 in
Snow Depth Not available.
6:18 AM 7:37 PM
Waxing Crescent, 14% visible
METAR KTAD 190854Z AUTO 16006G17KT 10SM CLR 05/M14 A3025 RMK AO2 SLP210 T00501144 58008
Pressure 30.15 in
Visibility 10.0 miles
Clouds Clear
Windchill 32 °F
Dew Point 14 °F
Humidity 37%
Rainfall 0.00 in
Snow Depth Not available.
6:18 AM 7:37 PM
Waxing Crescent, 14% visible
METAR KTAD 190854Z AUTO 16006G17KT 10SM CLR 05/M14 A3025 RMK AO2 SLP210 T00501144 58008

Get Your Daily Forecast Email!

Thanks for signing up!

Be on the lookout for a verification email in your inbox.

You'll start receiving severe weather alerts in your inbox..

×

10-Day Weather Forecast

Almanac

Astronomy

Apr. 19, 2018 Rise Set
Actual Time
Civil Twilight
Nautical Twilight
Astronomical Twilight
Moon
Length of Visible Light
Length of Day
Tomorrow will be .
, % of the Moon is Illuminated

Today's Extremes

State Highs State Lows

Community

WunderPhotos

Category 6

Welcome to Category 6. This is the collective home for Weather Underground's featured writeups by Dr. Jeff Masters (right), Bob Henson (left), Chris Burt, and other regular contributors.

Nearby

Air Quality

  Air Quality AQ Index Pollutant
Not available.

Snow Depth

Station Depth Elevation

Earthquake Activity

City Distance Mag. Time & Date
Minimum magnitude displayed is 2.5.

Coastal Water Temperatures

Place Temperature

Stations

Nearby Weather Stations

Station Location Temp. Windchill Dew Point Humidity Wind Precip. Elev Updated Type
                   

Watches & Warnings

Fire Weather Warning
Issued: 8:21 PM MDT Apr. 18, 2018 – National Weather Service

... Red flag warning remains in effect from 11 am to 7 PM MDT
Thursday for gusty winds, low relative humidity, and high Haines
indices for fire weather zones 220... 222... 224... 225... 228...
229... 230... 232 and 233...

* affected area... fire weather zones 220... 222... 224... 225...
228... 229... 230... 232 and 233.

* Winds... south 20 to 30 mph with gusts up to 45 mph.

* Relative humidity... as low as 12 percent.

* Haines... 5.

* Impacts... conditions will be favorable for the rapid ignition,
growth and spread of fires.

Precautionary/preparedness actions...

A red flag warning means that critical fire weather conditions
are either occurring now, or will shortly. A combination of
strong winds, low relative humidity, and warm temperatures can
contribute to extreme fire behavior.